Sant Sadurni d'Anoia, Spain
Current Conditions -  °F | °C
As of 1:00 PM on Friday 31 Oct 2014 (Local Time) from LEBL Reporting Station
Scattered Clouds Scattered Clouds  
Wind Chill: 70°   Ceiling: Unl
Heat Index: 70°   Visibility: 6mi
Dew Point: 61°   Wind: 8mph
Humidity: 73%   Direction: 100°E
Pressure: 30.24"   Gusts: NA
Location:  41.42°N, 1.78°E
Report Text: LEBL 311200Z 10007KT 060V140 9000 FEW020 SCT033 21/16 Q1024 NOSIG
Loading
Personal Weather Stations






























Interactive Weather Map
Tropical Storm Tracking
New forecast layout! Learn more

10-Day Weather Forecast

Advertisements
Track Severe Weather on mobile